sensor_id;sensor_type;location;lat;lon;timestamp;P1;durP1;ratioP1;P2;durP2;ratioP2
40649;SDS011;26342;42.826;23.992;2023-03-14T00:00:05;48.40;;;14.85;;
40649;SDS011;26342;42.826;23.992;2023-03-14T00:02:33;16.98;;;7.00;;
40649;SDS011;26342;42.826;23.992;2023-03-14T00:04:59;0.80;;;0.80;;
40649;SDS011;26342;42.826;23.992;2023-03-14T00:07:24;6.32;;;1.75;;
40649;SDS011;26342;42.826;23.992;2023-03-14T00:09:50;0.52;;;0.52;;
40649;SDS011;26342;42.826;23.992;2023-03-14T00:12:16;4.35;;;2.20;;
40649;SDS011;26342;42.826;23.992;2023-03-14T00:14:41;14.25;;;6.97;;
40649;SDS011;26342;42.826;23.992;2023-03-14T00:17:08;1.17;;;1.00;;
40649;SDS011;26342;42.826;23.992;2023-03-14T00:19:33;15.63;;;3.80;;
40649;SDS011;26342;42.826;23.992;2023-03-14T00:21:59;0.90;;;0.90;;
40649;SDS011;26342;42.826;23.992;2023-03-14T00:24:24;3.72;;;2.30;;
40649;SDS011;26342;42.826;23.992;2023-03-14T00:26:49;11.82;;;1.60;;
40649;SDS011;26342;42.826;23.992;2023-03-14T00:29:15;0.75;;;0.60;;
40649;SDS011;26342;42.826;23.992;2023-03-14T00:31:40;1.45;;;1.33;;
40649;SDS011;26342;42.826;23.992;2023-03-14T00:34:06;1.25;;;1.13;;
40649;SDS011;26342;42.826;23.992;2023-03-14T00:36:31;11.93;;;1.23;;
40649;SDS011;26342;42.826;23.992;2023-03-14T00:38:56;1.55;;;0.40;;
40649;SDS011;26342;42.826;23.992;2023-03-14T00:41:22;22.63;;;12.63;;
40649;SDS011;26342;42.826;23.992;2023-03-14T00:43:48;3.15;;;2.75;;
40649;SDS011;26342;42.826;23.992;2023-03-14T00:46:14;0.70;;;0.70;;
40649;SDS011;26342;42.826;23.992;2023-03-14T00:48:40;1.10;;;1.02;;
40649;SDS011;26342;42.826;23.992;2023-03-14T00:51:06;0.25;;;0.22;;
40649;SDS011;26342;42.826;23.992;2023-03-14T00:53:36;0.77;;;0.70;;
40649;SDS011;26342;42.826;23.992;2023-03-14T00:56:03;1.83;;;1.73;;
40649;SDS011;26342;42.826;23.992;2023-03-14T00:58:30;1.85;;;1.42;;
40649;SDS011;26342;42.826;23.992;2023-03-14T01:00:55;6.55;;;1.75;;
40649;SDS011;26342;42.826;23.992;2023-03-14T01:03:21;4.88;;;2.63;;
40649;SDS011;26342;42.826;23.992;2023-03-14T01:05:46;1.58;;;1.48;;
40649;SDS011;26342;42.826;23.992;2023-03-14T01:08:11;2.92;;;2.72;;
40649;SDS011;26342;42.826;23.992;2023-03-14T01:10:38;0.80;;;0.80;;
40649;SDS011;26342;42.826;23.992;2023-03-14T01:13:05;3.28;;;2.30;;
40649;SDS011;26342;42.826;23.992;2023-03-14T01:15:31;1.00;;;1.00;;
40649;SDS011;26342;42.826;23.992;2023-03-14T01:17:58;4.15;;;1.50;;
40649;SDS011;26342;42.826;23.992;2023-03-14T01:20:23;0.40;;;0.40;;
40649;SDS011;26342;42.826;23.992;2023-03-14T01:22:48;0.55;;;0.55;;
40649;SDS011;26342;42.826;23.992;2023-03-14T01:25:14;2.50;;;0.73;;
40649;SDS011;26342;42.826;23.992;2023-03-14T01:27:41;0.85;;;0.85;;
40649;SDS011;26342;42.826;23.992;2023-03-14T01:30:07;0.55;;;0.47;;
40649;SDS011;26342;42.826;23.992;2023-03-14T01:32:34;0.30;;;0.30;;
40649;SDS011;26342;42.826;23.992;2023-03-14T01:34:59;1.73;;;0.93;;
40649;SDS011;26342;42.826;23.992;2023-03-14T01:37:25;0.10;;;0.10;;
40649;SDS011;26342;42.826;23.992;2023-03-14T01:39:50;8.18;;;1.75;;
40649;SDS011;26342;42.826;23.992;2023-03-14T01:42:15;0.32;;;0.32;;
40649;SDS011;26342;42.826;23.992;2023-03-14T01:47:12;2.45;;;1.38;;
40649;SDS011;26342;42.826;23.992;2023-03-14T01:49:38;0.75;;;0.73;;
40649;SDS011;26342;42.826;23.992;2023-03-14T01:52:11;4.53;;;1.25;;
40649;SDS011;26342;42.826;23.992;2023-03-14T01:55:07;0.93;;;0.93;;
40649;SDS011;26342;42.826;23.992;2023-03-14T01:57:37;0.75;;;0.75;;
40649;SDS011;26342;42.826;23.992;2023-03-14T02:00:10;0.73;;;0.73;;
40649;SDS011;26342;42.826;23.992;2023-03-14T02:02:44;7.72;;;4.00;;
40649;SDS011;26342;42.826;23.992;2023-03-14T02:05:12;10.40;;;3.08;;
40649;SDS011;26342;42.826;23.992;2023-03-14T02:07:48;0.85;;;0.70;;
40649;SDS011;26342;42.826;23.992;2023-03-14T02:10:16;1.48;;;1.38;;
40649;SDS011;26342;42.826;23.992;2023-03-14T02:12:45;0.65;;;0.65;;
40649;SDS011;26342;42.826;23.992;2023-03-14T02:15:12;1.08;;;1.05;;
40649;SDS011;26342;42.826;23.992;2023-03-14T02:17:37;0.52;;;0.52;;
40649;SDS011;26342;42.826;23.992;2023-03-14T02:20:07;1.17;;;1.10;;
40649;SDS011;26342;42.826;23.992;2023-03-14T02:22:35;1.30;;;1.23;;
40649;SDS011;26342;42.826;23.992;2023-03-14T02:25:17;0.63;;;0.63;;
40649;SDS011;26342;42.826;23.992;2023-03-14T02:27:53;4.43;;;3.28;;
40649;SDS011;26342;42.826;23.992;2023-03-14T02:30:23;7.25;;;4.00;;
40649;SDS011;26342;42.826;23.992;2023-03-14T02:32:51;1.88;;;1.77;;
40649;SDS011;26342;42.826;23.992;2023-03-14T02:35:24;2.15;;;0.85;;
40649;SDS011;26342;42.826;23.992;2023-03-14T02:37:55;0.60;;;0.60;;
40649;SDS011;26342;42.826;23.992;2023-03-14T02:40:25;0.80;;;0.50;;
40649;SDS011;26342;42.826;23.992;2023-03-14T02:42:51;1.23;;;1.13;;
40649;SDS011;26342;42.826;23.992;2023-03-14T02:47:43;0.77;;;0.77;;
40649;SDS011;26342;42.826;23.992;2023-03-14T02:50:13;0.40;;;0.35;;
40649;SDS011;26342;42.826;23.992;2023-03-14T02:52:43;1.88;;;1.00;;
40649;SDS011;26342;42.826;23.992;2023-03-14T02:55:08;5.38;;;1.63;;
40649;SDS011;26342;42.826;23.992;2023-03-14T02:57:34;1.23;;;1.23;;
40649;SDS011;26342;42.826;23.992;2023-03-14T03:00:00;0.98;;;0.95;;
40649;SDS011;26342;42.826;23.992;2023-03-14T03:02:29;1.08;;;0.60;;
40649;SDS011;26342;42.826;23.992;2023-03-14T03:04:54;0.30;;;0.30;;
40649;SDS011;26342;42.826;23.992;2023-03-14T03:07:20;1.95;;;0.93;;
40649;SDS011;26342;42.826;23.992;2023-03-14T03:09:45;1.45;;;1.35;;
40649;SDS011;26342;42.826;23.992;2023-03-14T03:12:11;1.75;;;1.65;;
40649;SDS011;26342;42.826;23.992;2023-03-14T03:14:36;1.05;;;1.00;;
40649;SDS011;26342;42.826;23.992;2023-03-14T03:17:02;0.73;;;0.70;;
40649;SDS011;26342;42.826;23.992;2023-03-14T03:19:29;3.55;;;1.13;;
40649;SDS011;26342;42.826;23.992;2023-03-14T03:21:54;1.75;;;1.35;;
40649;SDS011;26342;42.826;23.992;2023-03-14T03:24:19;3.33;;;1.38;;
40649;SDS011;26342;42.826;23.992;2023-03-14T03:26:45;1.67;;;1.52;;
40649;SDS011;26342;42.826;23.992;2023-03-14T03:29:10;3.00;;;2.33;;
40649;SDS011;26342;42.826;23.992;2023-03-14T03:31:39;3.25;;;2.75;;
40649;SDS011;26342;42.826;23.992;2023-03-14T03:34:04;1.63;;;1.55;;
40649;SDS011;26342;42.826;23.992;2023-03-14T03:36:30;2.05;;;1.85;;
40649;SDS011;26342;42.826;23.992;2023-03-14T03:38:55;7.78;;;2.80;;
40649;SDS011;26342;42.826;23.992;2023-03-14T03:41:20;2.88;;;1.85;;
40649;SDS011;26342;42.826;23.992;2023-03-14T03:43:46;5.97;;;2.22;;
40649;SDS011;26342;42.826;23.992;2023-03-14T03:46:11;4.18;;;2.13;;
40649;SDS011;26342;42.826;23.992;2023-03-14T03:48:36;2.35;;;1.05;;
40649;SDS011;26342;42.826;23.992;2023-03-14T03:51:02;2.75;;;2.08;;
40649;SDS011;26342;42.826;23.992;2023-03-14T03:53:27;1.73;;;1.33;;
40649;SDS011;26342;42.826;23.992;2023-03-14T03:55:53;3.05;;;2.15;;
40649;SDS011;26342;42.826;23.992;2023-03-14T03:58:18;1.08;;;1.02;;
40649;SDS011;26342;42.826;23.992;2023-03-14T04:00:44;5.50;;;3.20;;
40649;SDS011;26342;42.826;23.992;2023-03-14T04:03:10;5.47;;;2.78;;
40649;SDS011;26342;42.826;23.992;2023-03-14T04:05:35;9.98;;;2.47;;
40649;SDS011;26342;42.826;23.992;2023-03-14T04:08:01;8.50;;;6.25;;
40649;SDS011;26342;42.826;23.992;2023-03-14T04:10:27;2.95;;;2.58;;
40649;SDS011;26342;42.826;23.992;2023-03-14T04:12:53;7.18;;;2.60;;
40649;SDS011;26342;42.826;23.992;2023-03-14T04:15:18;6.13;;;4.80;;
40649;SDS011;26342;42.826;23.992;2023-03-14T04:17:44;4.35;;;2.38;;
40649;SDS011;26342;42.826;23.992;2023-03-14T04:20:09;8.38;;;3.67;;
40649;SDS011;26342;42.826;23.992;2023-03-14T04:22:38;7.72;;;4.32;;
40649;SDS011;26342;42.826;23.992;2023-03-14T04:25:04;12.93;;;4.68;;
40649;SDS011;26342;42.826;23.992;2023-03-14T04:27:30;6.00;;;3.75;;
40649;SDS011;26342;42.826;23.992;2023-03-14T04:29:56;22.85;;;3.13;;
40649;SDS011;26342;42.826;23.992;2023-03-14T04:32:21;4.82;;;2.10;;
40649;SDS011;26342;42.826;23.992;2023-03-14T04:34:46;13.77;;;7.30;;
40649;SDS011;26342;42.826;23.992;2023-03-14T04:37:12;4.72;;;3.38;;
40649;SDS011;26342;42.826;23.992;2023-03-14T04:39:37;5.53;;;2.70;;
40649;SDS011;26342;42.826;23.992;2023-03-14T04:42:03;5.25;;;2.30;;
40649;SDS011;26342;42.826;23.992;2023-03-14T04:44:28;10.65;;;6.57;;
40649;SDS011;26342;42.826;23.992;2023-03-14T04:46:53;9.48;;;3.28;;
40649;SDS011;26342;42.826;23.992;2023-03-14T04:49:19;4.25;;;3.15;;
40649;SDS011;26342;42.826;23.992;2023-03-14T04:51:44;3.67;;;3.05;;
40649;SDS011;26342;42.826;23.992;2023-03-14T04:54:10;8.02;;;3.38;;
40649;SDS011;26342;42.826;23.992;2023-03-14T04:56:35;6.95;;;4.45;;
40649;SDS011;26342;42.826;23.992;2023-03-14T04:59:02;7.07;;;5.22;;
40649;SDS011;26342;42.826;23.992;2023-03-14T05:01:28;9.30;;;5.82;;
40649;SDS011;26342;42.826;23.992;2023-03-14T05:03:53;4.22;;;3.88;;
40649;SDS011;26342;42.826;23.992;2023-03-14T05:06:18;14.65;;;6.18;;
40649;SDS011;26342;42.826;23.992;2023-03-14T05:08:44;3.72;;;2.63;;
40649;SDS011;26342;42.826;23.992;2023-03-14T05:11:10;7.35;;;5.20;;
40649;SDS011;26342;42.826;23.992;2023-03-14T05:13:36;12.18;;;3.83;;
40649;SDS011;26342;42.826;23.992;2023-03-14T05:16:06;11.07;;;3.83;;
40649;SDS011;26342;42.826;23.992;2023-03-14T05:18:33;8.27;;;5.97;;
40649;SDS011;26342;42.826;23.992;2023-03-14T05:20:58;7.72;;;5.95;;
40649;SDS011;26342;42.826;23.992;2023-03-14T05:23:24;5.65;;;5.13;;
40649;SDS011;26342;42.826;23.992;2023-03-14T05:25:50;7.45;;;6.30;;
40649;SDS011;26342;42.826;23.992;2023-03-14T05:28:15;14.60;;;4.57;;
40649;SDS011;26342;42.826;23.992;2023-03-14T05:30:40;13.13;;;7.35;;
40649;SDS011;26342;42.826;23.992;2023-03-14T05:33:06;12.90;;;8.13;;
40649;SDS011;26342;42.826;23.992;2023-03-14T05:35:31;6.05;;;4.88;;
40649;SDS011;26342;42.826;23.992;2023-03-14T05:37:57;11.30;;;6.88;;
40649;SDS011;26342;42.826;23.992;2023-03-14T05:40:22;13.88;;;7.90;;
40649;SDS011;26342;42.826;23.992;2023-03-14T05:42:47;11.07;;;7.05;;
40649;SDS011;26342;42.826;23.992;2023-03-14T05:45:14;19.70;;;8.05;;
40649;SDS011;26342;42.826;23.992;2023-03-14T05:47:40;15.00;;;10.13;;
40649;SDS011;26342;42.826;23.992;2023-03-14T05:50:05;7.88;;;7.07;;
40649;SDS011;26342;42.826;23.992;2023-03-14T05:52:31;8.95;;;6.40;;
40649;SDS011;26342;42.826;23.992;2023-03-14T05:54:57;8.80;;;5.93;;
40649;SDS011;26342;42.826;23.992;2023-03-14T05:57:22;22.95;;;9.48;;
40649;SDS011;26342;42.826;23.992;2023-03-14T05:59:48;13.00;;;9.43;;
40649;SDS011;26342;42.826;23.992;2023-03-14T06:02:13;12.50;;;9.13;;
40649;SDS011;26342;42.826;23.992;2023-03-14T06:04:38;14.13;;;10.88;;
40649;SDS011;26342;42.826;23.992;2023-03-14T06:07:04;15.80;;;10.75;;
40649;SDS011;26342;42.826;23.992;2023-03-14T06:09:29;14.80;;;8.63;;
40649;SDS011;26342;42.826;23.992;2023-03-14T06:11:54;13.57;;;11.23;;
40649;SDS011;26342;42.826;23.992;2023-03-14T06:14:20;17.40;;;9.13;;
40649;SDS011;26342;42.826;23.992;2023-03-14T06:16:45;11.68;;;8.93;;
40649;SDS011;26342;42.826;23.992;2023-03-14T06:19:13;18.33;;;12.25;;
40649;SDS011;26342;42.826;23.992;2023-03-14T06:21:39;18.35;;;11.55;;
40649;SDS011;26342;42.826;23.992;2023-03-14T06:24:04;12.80;;;7.00;;
40649;SDS011;26342;42.826;23.992;2023-03-14T06:26:30;5.97;;;5.13;;
40649;SDS011;26342;42.826;23.992;2023-03-14T06:28:55;19.58;;;6.60;;
40649;SDS011;26342;42.826;23.992;2023-03-14T06:31:20;9.93;;;6.70;;
40649;SDS011;26342;42.826;23.992;2023-03-14T06:33:46;7.10;;;6.38;;
40649;SDS011;26342;42.826;23.992;2023-03-14T06:36:11;13.25;;;6.57;;
40649;SDS011;26342;42.826;23.992;2023-03-14T06:38:37;11.15;;;5.28;;
40649;SDS011;26342;42.826;23.992;2023-03-14T06:41:05;10.25;;;6.47;;
40649;SDS011;26342;42.826;23.992;2023-03-14T06:43:32;10.38;;;4.93;;
40649;SDS011;26342;42.826;23.992;2023-03-14T06:45:57;10.10;;;6.97;;
40649;SDS011;26342;42.826;23.992;2023-03-14T06:48:23;8.05;;;4.55;;
40649;SDS011;26342;42.826;23.992;2023-03-14T06:50:49;5.60;;;4.00;;
40649;SDS011;26342;42.826;23.992;2023-03-14T06:53:14;17.02;;;6.45;;
40649;SDS011;26342;42.826;23.992;2023-03-14T06:55:40;10.48;;;6.50;;
40649;SDS011;26342;42.826;23.992;2023-03-14T06:58:05;17.13;;;5.43;;
40649;SDS011;26342;42.826;23.992;2023-03-14T07:00:32;4.32;;;3.65;;
40649;SDS011;26342;42.826;23.992;2023-03-14T07:02:58;5.70;;;3.65;;
40649;SDS011;26342;42.826;23.992;2023-03-14T07:05:23;4.35;;;1.90;;
40649;SDS011;26342;42.826;23.992;2023-03-14T07:07:49;5.55;;;2.63;;
40649;SDS011;26342;42.826;23.992;2023-03-14T07:10:14;2.83;;;2.13;;
40649;SDS011;26342;42.826;23.992;2023-03-14T07:12:40;3.38;;;3.08;;
40649;SDS011;26342;42.826;23.992;2023-03-14T07:15:05;3.17;;;1.98;;
40649;SDS011;26342;42.826;23.992;2023-03-14T07:17:31;2.20;;;1.27;;
40649;SDS011;26342;42.826;23.992;2023-03-14T07:19:56;7.80;;;2.55;;
40649;SDS011;26342;42.826;23.992;2023-03-14T07:22:22;2.67;;;1.70;;
40649;SDS011;26342;42.826;23.992;2023-03-14T07:24:47;1.83;;;1.73;;
40649;SDS011;26342;42.826;23.992;2023-03-14T07:27:12;1.33;;;0.95;;
40649;SDS011;26342;42.826;23.992;2023-03-14T07:29:38;4.10;;;2.63;;
40649;SDS011;26342;42.826;23.992;2023-03-14T07:32:03;19.67;;;2.42;;
40649;SDS011;26342;42.826;23.992;2023-03-14T07:34:28;1.00;;;1.00;;
40649;SDS011;26342;42.826;23.992;2023-03-14T07:36:54;1.52;;;1.20;;
40649;SDS011;26342;42.826;23.992;2023-03-14T07:39:19;2.88;;;1.45;;
40649;SDS011;26342;42.826;23.992;2023-03-14T07:41:45;3.50;;;2.47;;
40649;SDS011;26342;42.826;23.992;2023-03-14T07:44:10;4.20;;;1.52;;
40649;SDS011;26342;42.826;23.992;2023-03-14T07:46:35;6.32;;;2.47;;
40649;SDS011;26342;42.826;23.992;2023-03-14T07:49:01;9.65;;;2.72;;
40649;SDS011;26342;42.826;23.992;2023-03-14T07:51:26;5.70;;;1.95;;
40649;SDS011;26342;42.826;23.992;2023-03-14T07:53:51;1.90;;;1.08;;
40649;SDS011;26342;42.826;23.992;2023-03-14T07:56:17;1.65;;;1.55;;
40649;SDS011;26342;42.826;23.992;2023-03-14T07:58:42;2.15;;;1.38;;
40649;SDS011;26342;42.826;23.992;2023-03-14T08:01:08;1.52;;;1.42;;
40649;SDS011;26342;42.826;23.992;2023-03-14T08:03:33;4.68;;;1.38;;
40649;SDS011;26342;42.826;23.992;2023-03-14T08:05:58;2.58;;;1.73;;
40649;SDS011;26342;42.826;23.992;2023-03-14T08:08:24;1.48;;;1.17;;
40649;SDS011;26342;42.826;23.992;2023-03-14T08:10:49;2.35;;;1.88;;
40649;SDS011;26342;42.826;23.992;2023-03-14T08:13:15;1.98;;;1.52;;
40649;SDS011;26342;42.826;23.992;2023-03-14T08:15:40;1.65;;;1.38;;
40649;SDS011;26342;42.826;23.992;2023-03-14T08:18:05;2.00;;;1.33;;
40649;SDS011;26342;42.826;23.992;2023-03-14T08:20:32;0.45;;;0.45;;
40649;SDS011;26342;42.826;23.992;2023-03-14T08:22:58;0.57;;;0.50;;
40649;SDS011;26342;42.826;23.992;2023-03-14T08:25:25;0.52;;;0.52;;
40649;SDS011;26342;42.826;23.992;2023-03-14T08:27:51;1.42;;;0.70;;
40649;SDS011;26342;42.826;23.992;2023-03-14T08:30:18;0.20;;;0.20;;
40649;SDS011;26342;42.826;23.992;2023-03-14T08:32:44;0.90;;;0.90;;
40649;SDS011;26342;42.826;23.992;2023-03-14T08:35:10;1.27;;;0.35;;
40649;SDS011;26342;42.826;23.992;2023-03-14T08:37:36;0.68;;;0.32;;
40649;SDS011;26342;42.826;23.992;2023-03-14T08:40:02;0.32;;;0.30;;
40649;SDS011;26342;42.826;23.992;2023-03-14T08:42:32;0.10;;;0.10;;
40649;SDS011;26342;42.826;23.992;2023-03-14T08:44:58;0.65;;;0.65;;
40649;SDS011;26342;42.826;23.992;2023-03-14T08:47:23;0.25;;;0.25;;
40649;SDS011;26342;42.826;23.992;2023-03-14T08:49:49;0.50;;;0.50;;
40649;SDS011;26342;42.826;23.992;2023-03-14T08:52:14;1.30;;;1.20;;
40649;SDS011;26342;42.826;23.992;2023-03-14T08:54:41;1.15;;;1.02;;
40649;SDS011;26342;42.826;23.992;2023-03-14T08:57:09;0.52;;;0.35;;
40649;SDS011;26342;42.826;23.992;2023-03-14T08:59:34;0.30;;;0.22;;
40649;SDS011;26342;42.826;23.992;2023-03-14T09:02:00;0.15;;;0.15;;
40649;SDS011;26342;42.826;23.992;2023-03-14T09:04:28;3.05;;;0.50;;
40649;SDS011;26342;42.826;23.992;2023-03-14T09:06:54;0.47;;;0.45;;
40649;SDS011;26342;42.826;23.992;2023-03-14T09:09:20;1.75;;;0.40;;
40649;SDS011;26342;42.826;23.992;2023-03-14T09:11:45;0.38;;;0.35;;
40649;SDS011;26342;42.826;23.992;2023-03-14T09:14:11;1.77;;;0.40;;
40649;SDS011;26342;42.826;23.992;2023-03-14T09:16:36;2.67;;;1.17;;
40649;SDS011;26342;42.826;23.992;2023-03-14T09:19:02;0.30;;;0.28;;
40649;SDS011;26342;42.826;23.992;2023-03-14T09:21:27;0.10;;;0.10;;
40649;SDS011;26342;42.826;23.992;2023-03-14T09:23:53;0.40;;;0.40;;
40649;SDS011;26342;42.826;23.992;2023-03-14T09:26:19;0.10;;;0.10;;
40649;SDS011;26342;42.826;23.992;2023-03-14T09:28:44;0.57;;;0.50;;
40649;SDS011;26342;42.826;23.992;2023-03-14T09:31:11;0.95;;;0.63;;
40649;SDS011;26342;42.826;23.992;2023-03-14T09:33:37;0.17;;;0.10;;
40649;SDS011;26342;42.826;23.992;2023-03-14T09:36:03;0.68;;;0.60;;
40649;SDS011;26342;42.826;23.992;2023-03-14T09:38:30;0.40;;;0.40;;
40649;SDS011;26342;42.826;23.992;2023-03-14T09:40:58;0.10;;;0.10;;
40649;SDS011;26342;42.826;23.992;2023-03-14T09:43:26;0.55;;;0.55;;
40649;SDS011;26342;42.826;23.992;2023-03-14T09:45:55;0.57;;;0.52;;
40649;SDS011;26342;42.826;23.992;2023-03-14T09:48:27;0.40;;;0.40;;
40649;SDS011;26342;42.826;23.992;2023-03-14T09:50:57;0.40;;;0.40;;
40649;SDS011;26342;42.826;23.992;2023-03-14T09:53:28;0.75;;;0.75;;
40649;SDS011;26342;42.826;23.992;2023-03-14T09:56:18;1.23;;;0.68;;
40649;SDS011;26342;42.826;23.992;2023-03-14T09:58:53;0.30;;;0.30;;
40649;SDS011;26342;42.826;23.992;2023-03-14T10:01:23;0.60;;;0.55;;
40649;SDS011;26342;42.826;23.992;2023-03-14T10:03:54;0.10;;;0.10;;
40649;SDS011;26342;42.826;23.992;2023-03-14T10:06:22;0.10;;;0.10;;
40649;SDS011;26342;42.826;23.992;2023-03-14T10:08:50;0.30;;;0.20;;
40649;SDS011;26342;42.826;23.992;2023-03-14T10:11:17;0.65;;;0.63;;
40649;SDS011;26342;42.826;23.992;2023-03-14T10:13:47;0.43;;;0.35;;
40649;SDS011;26342;42.826;23.992;2023-03-14T10:16:15;0.60;;;0.28;;
40649;SDS011;26342;42.826;23.992;2023-03-14T10:18:43;0.15;;;0.15;;
40649;SDS011;26342;42.826;23.992;2023-03-14T10:21:17;0.38;;;0.38;;
40649;SDS011;26342;42.826;23.992;2023-03-14T10:23:50;0.22;;;0.22;;
40649;SDS011;26342;42.826;23.992;2023-03-14T10:26:17;0.20;;;0.20;;
40649;SDS011;26342;42.826;23.992;2023-03-14T10:28:51;0.47;;;0.40;;
40649;SDS011;26342;42.826;23.992;2023-03-14T10:31:18;0.10;;;0.10;;
40649;SDS011;26342;42.826;23.992;2023-03-14T10:33:59;0.55;;;0.43;;
40649;SDS011;26342;42.826;23.992;2023-03-14T10:36:31;0.40;;;0.40;;
40649;SDS011;26342;42.826;23.992;2023-03-14T10:39:21;0.25;;;0.20;;
40649;SDS011;26342;42.826;23.992;2023-03-14T10:42:09;1.10;;;0.55;;
40649;SDS011;26342;42.826;23.992;2023-03-14T10:44:39;1.92;;;0.55;;
40649;SDS011;26342;42.826;23.992;2023-03-14T10:47:12;0.10;;;0.08;;
40649;SDS011;26342;42.826;23.992;2023-03-14T10:49:42;0.22;;;0.20;;
40649;SDS011;26342;42.826;23.992;2023-03-14T10:54:48;2.38;;;2.17;;
40649;SDS011;26342;42.826;23.992;2023-03-14T10:57:18;0.55;;;0.20;;
40649;SDS011;26342;42.826;23.992;2023-03-14T10:59:45;0.20;;;0.20;;
40649;SDS011;26342;42.826;23.992;2023-03-14T11:10:03;8.60;;;0.63;;
40649;SDS011;26342;42.826;23.992;2023-03-14T11:15:34;2.25;;;0.40;;
40649;SDS011;26342;42.826;23.992;2023-03-14T11:23:20;0.10;;;0.10;;
40649;SDS011;26342;42.826;23.992;2023-03-14T11:28:39;0.35;;;0.35;;
40649;SDS011;26342;42.826;23.992;2023-03-14T11:36:27;0.30;;;0.30;;
40649;SDS011;26342;42.826;23.992;2023-03-14T11:38:59;0.10;;;0.10;;
40649;SDS011;26342;42.826;23.992;2023-03-14T11:43:55;0.75;;;0.20;;
40649;SDS011;26342;42.826;23.992;2023-03-14T11:51:55;0.10;;;0.10;;
40649;SDS011;26342;42.826;23.992;2023-03-14T11:54:47;0.20;;;0.20;;
40649;SDS011;26342;42.826;23.992;2023-03-14T11:57:15;0.20;;;0.20;;
40649;SDS011;26342;42.826;23.992;2023-03-14T12:02:26;1.35;;;0.20;;
40649;SDS011;26342;42.826;23.992;2023-03-14T12:10:39;0.77;;;0.43;;
40649;SDS011;26342;42.826;23.992;2023-03-14T12:13:08;0.40;;;0.15;;
40649;SDS011;26342;42.826;23.992;2023-03-14T12:15:36;0.47;;;0.38;;
40649;SDS011;26342;42.826;23.992;2023-03-14T12:18:12;0.17;;;0.17;;
40649;SDS011;26342;42.826;23.992;2023-03-14T12:21:02;0.17;;;0.17;;
40649;SDS011;26342;42.826;23.992;2023-03-14T12:23:43;2.33;;;0.60;;
40649;SDS011;26342;42.826;23.992;2023-03-14T12:28:43;0.32;;;0.32;;
40649;SDS011;26342;42.826;23.992;2023-03-14T12:39:19;0.13;;;0.10;;
40649;SDS011;26342;42.826;23.992;2023-03-14T12:42:01;3.33;;;0.52;;
40649;SDS011;26342;42.826;23.992;2023-03-14T12:46:59;0.20;;;0.20;;
40649;SDS011;26342;42.826;23.992;2023-03-14T12:49:31;0.35;;;0.35;;
40649;SDS011;26342;42.826;23.992;2023-03-14T12:52:00;0.75;;;0.20;;
40649;SDS011;26342;42.826;23.992;2023-03-14T12:57:01;0.20;;;0.20;;
40649;SDS011;26342;42.826;23.992;2023-03-14T12:59:30;0.47;;;0.20;;
40649;SDS011;26342;42.826;23.992;2023-03-14T13:04:50;0.20;;;0.20;;
40649;SDS011;26342;42.826;23.992;2023-03-14T13:12:37;3.03;;;0.65;;
40649;SDS011;26342;42.826;23.992;2023-03-14T13:15:21;1.27;;;0.30;;
40649;SDS011;26342;42.826;23.992;2023-03-14T13:17:49;0.25;;;0.13;;
40649;SDS011;26342;42.826;23.992;2023-03-14T13:20:31;0.40;;;0.40;;
40649;SDS011;26342;42.826;23.992;2023-03-14T13:23:00;0.17;;;0.17;;
40649;SDS011;26342;42.826;23.992;2023-03-14T13:25:31;0.70;;;0.43;;
40649;SDS011;26342;42.826;23.992;2023-03-14T13:27:58;1.25;;;0.35;;
40649;SDS011;26342;42.826;23.992;2023-03-14T13:30:28;0.85;;;0.82;;
40649;SDS011;26342;42.826;23.992;2023-03-14T13:33:02;0.85;;;0.65;;
40649;SDS011;26342;42.826;23.992;2023-03-14T13:35:29;0.60;;;0.60;;
40649;SDS011;26342;42.826;23.992;2023-03-14T13:38:04;1.13;;;0.73;;
40649;SDS011;26342;42.826;23.992;2023-03-14T13:40:32;0.90;;;0.90;;
40649;SDS011;26342;42.826;23.992;2023-03-14T13:43:03;0.30;;;0.30;;
40649;SDS011;26342;42.826;23.992;2023-03-14T13:45:48;0.68;;;0.50;;
40649;SDS011;26342;42.826;23.992;2023-03-14T13:48:18;0.20;;;0.20;;
40649;SDS011;26342;42.826;23.992;2023-03-14T13:50:48;1.13;;;0.20;;
40649;SDS011;26342;42.826;23.992;2023-03-14T13:53:16;0.40;;;0.40;;
40649;SDS011;26342;42.826;23.992;2023-03-14T13:55:42;0.30;;;0.30;;
40649;SDS011;26342;42.826;23.992;2023-03-14T13:58:19;1.00;;;0.90;;
40649;SDS011;26342;42.826;23.992;2023-03-14T14:00:56;0.57;;;0.57;;
40649;SDS011;26342;42.826;23.992;2023-03-14T14:03:24;0.25;;;0.25;;
40649;SDS011;26342;42.826;23.992;2023-03-14T14:05:49;0.85;;;0.57;;
40649;SDS011;26342;42.826;23.992;2023-03-14T14:08:15;1.95;;;1.15;;
40649;SDS011;26342;42.826;23.992;2023-03-14T14:10:41;0.57;;;0.57;;
40649;SDS011;26342;42.826;23.992;2023-03-14T14:13:08;0.85;;;0.65;;
40649;SDS011;26342;42.826;23.992;2023-03-14T14:15:40;0.60;;;0.60;;
40649;SDS011;26342;42.826;23.992;2023-03-14T14:18:10;0.38;;;0.38;;
40649;SDS011;26342;42.826;23.992;2023-03-14T14:20:41;1.75;;;0.88;;
40649;SDS011;26342;42.826;23.992;2023-03-14T14:23:12;4.57;;;0.68;;
40649;SDS011;26342;42.826;23.992;2023-03-14T14:25:42;0.75;;;0.75;;
40649;SDS011;26342;42.826;23.992;2023-03-14T14:28:15;0.75;;;0.55;;
40649;SDS011;26342;42.826;23.992;2023-03-14T14:30:45;0.10;;;0.10;;
40649;SDS011;26342;42.826;23.992;2023-03-14T14:33:12;0.63;;;0.63;;
40649;SDS011;26342;42.826;23.992;2023-03-14T14:35:48;0.40;;;0.40;;
40649;SDS011;26342;42.826;23.992;2023-03-14T14:38:26;2.33;;;0.88;;
40649;SDS011;26342;42.826;23.992;2023-03-14T14:40:53;3.67;;;0.73;;
40649;SDS011;26342;42.826;23.992;2023-03-14T14:43:25;1.13;;;0.95;;
40649;SDS011;26342;42.826;23.992;2023-03-14T14:45:53;0.93;;;0.82;;
40649;SDS011;26342;42.826;23.992;2023-03-14T14:48:24;0.88;;;0.68;;
40649;SDS011;26342;42.826;23.992;2023-03-14T14:50:56;0.55;;;0.55;;
40649;SDS011;26342;42.826;23.992;2023-03-14T14:53:41;0.38;;;0.32;;
40649;SDS011;26342;42.826;23.992;2023-03-14T14:56:17;0.30;;;0.30;;
40649;SDS011;26342;42.826;23.992;2023-03-14T14:58:47;10.68;;;0.98;;
40649;SDS011;26342;42.826;23.992;2023-03-14T15:01:17;0.35;;;0.35;;
40649;SDS011;26342;42.826;23.992;2023-03-14T15:03:45;0.73;;;0.55;;
40649;SDS011;26342;42.826;23.992;2023-03-14T15:06:13;1.48;;;1.33;;
40649;SDS011;26342;42.826;23.992;2023-03-14T15:08:40;1.35;;;0.52;;
40649;SDS011;26342;42.826;23.992;2023-03-14T15:11:09;0.70;;;0.20;;
40649;SDS011;26342;42.826;23.992;2023-03-14T15:13:42;0.43;;;0.43;;
40649;SDS011;26342;42.826;23.992;2023-03-14T15:16:11;0.35;;;0.35;;
40649;SDS011;26342;42.826;23.992;2023-03-14T15:18:38;3.50;;;1.40;;
40649;SDS011;26342;42.826;23.992;2023-03-14T15:21:04;0.10;;;0.10;;
40649;SDS011;26342;42.826;23.992;2023-03-14T15:23:30;0.05;;;0.05;;
40649;SDS011;26342;42.826;23.992;2023-03-14T15:25:55;1.35;;;0.57;;
40649;SDS011;26342;42.826;23.992;2023-03-14T15:28:22;0.38;;;0.38;;
40649;SDS011;26342;42.826;23.992;2023-03-14T15:30:49;0.47;;;0.47;;
40649;SDS011;26342;42.826;23.992;2023-03-14T15:33:16;0.50;;;0.50;;
40649;SDS011;26342;42.826;23.992;2023-03-14T15:35:42;0.77;;;0.35;;
40649;SDS011;26342;42.826;23.992;2023-03-14T15:38:11;3.53;;;0.55;;
40649;SDS011;26342;42.826;23.992;2023-03-14T15:40:39;1.95;;;1.35;;
40649;SDS011;26342;42.826;23.992;2023-03-14T15:43:05;0.95;;;0.90;;
40649;SDS011;26342;42.826;23.992;2023-03-14T15:45:31;2.70;;;1.63;;
40649;SDS011;26342;42.826;23.992;2023-03-14T15:47:56;2.90;;;2.00;;